DIBK

Details ICAO DIBK (BYK)
Name BOUAKE
Region Côte d'Ivoire
Timezone Africa/Abidjan (UTC+0.0)
Plans Departing 2
Arriving 5
Stats Elevation 1,230 ft / 375 m (AMSL)
Location 7.738800° -5.073666°
Runways 1
Magnetic Variation 4.359° W
Sunrise 2017-12-11 06:24:35 UTC / 2017-12-11 06:24:35 Local
Sunset 2017-12-11 18:05:26 UTC / 2017-12-11 18:05:26 Local
Advertisement - Login to hide

Runways

ID Width Length Bearing (true) Bearing (mag) Surface Threshold Offset Overrun Length
03 148 ft / 45 m 10,872 ft / 3,314 m 24.08° 28.44° Asphalt 0 ft / 0 m 951 ft / 290 m
21 148 ft / 45 m 10,872 ft / 3,314 m 204.08° 208.44° Asphalt 0 ft / 0 m 951 ft / 290 m

Map

Weather


0- 5 10 15 20 25 30 35+ Temperature / ° C

Clouds and Precipitation
Forecast for 2017-12-11 12:00 UTC. Updated 26 minutes ago

Ground ~20,000 ft ~40,000 ft Winds

METAR

DIBK 111100Z 06012KT 4000 HZ NSC 28/05 Q1015 NOSIG

TAF

TAF TAF DIBK 110500Z 1106/1206 04006KT 6000 NSC PROB30 TEMPO 1010/1016 2000 HZ NSC

Frequencies

Ground 121.70 MHz GND
Tower 118.90 MHz TWR
Tower 121.70 MHz TWR
Approach 120.00 MHz APP
Warning: Do not use this data for real-world aviation or navigation. No guarantee of current accuracy is given.